sensor_id;sensor_type;location;lat;lon;timestamp;temperature;humidity
20568;DHT22;10442;49.932;11.592;2022-10-16T00:01:31;18.40;80.80
20568;DHT22;10442;49.932;11.592;2022-10-16T00:04:00;18.40;80.80
20568;DHT22;10442;49.932;11.592;2022-10-16T00:06:30;18.40;80.80
20568;DHT22;10442;49.932;11.592;2022-10-16T00:08:58;18.50;80.80
20568;DHT22;10442;49.932;11.592;2022-10-16T00:11:32;18.40;80.80
20568;DHT22;10442;49.932;11.592;2022-10-16T00:14:11;18.50;80.80
20568;DHT22;10442;49.932;11.592;2022-10-16T00:16:38;18.50;80.80
20568;DHT22;10442;49.932;11.592;2022-10-16T00:19:06;18.50;80.80
20568;DHT22;10442;49.932;11.592;2022-10-16T00:21:34;18.50;80.80
20568;DHT22;10442;49.932;11.592;2022-10-16T00:24:07;18.50;80.80
20568;DHT22;10442;49.932;11.592;2022-10-16T00:26:37;18.50;80.80
20568;DHT22;10442;49.932;11.592;2022-10-16T00:29:05;18.50;80.70
20568;DHT22;10442;49.932;11.592;2022-10-16T00:31:33;18.50;80.70
20568;DHT22;10442;49.932;11.592;2022-10-16T00:34:00;18.50;80.70
20568;DHT22;10442;49.932;11.592;2022-10-16T00:36:28;18.50;80.70
20568;DHT22;10442;49.932;11.592;2022-10-16T00:38:57;18.50;80.70
20568;DHT22;10442;49.932;11.592;2022-10-16T00:41:32;18.50;80.80
20568;DHT22;10442;49.932;11.592;2022-10-16T00:44:03;18.50;80.80
20568;DHT22;10442;49.932;11.592;2022-10-16T00:46:41;18.50;80.80
20568;DHT22;10442;49.932;11.592;2022-10-16T00:49:12;18.50;80.80
20568;DHT22;10442;49.932;11.592;2022-10-16T00:51:43;18.50;80.80
20568;DHT22;10442;49.932;11.592;2022-10-16T00:54:28;18.50;80.80
20568;DHT22;10442;49.932;11.592;2022-10-16T00:57:02;18.50;80.80
20568;DHT22;10442;49.932;11.592;2022-10-16T00:59:37;18.50;80.70
20568;DHT22;10442;49.932;11.592;2022-10-16T01:02:06;18.60;80.90
20568;DHT22;10442;49.932;11.592;2022-10-16T01:04:42;18.50;80.80
20568;DHT22;10442;49.932;11.592;2022-10-16T01:10:11;18.50;80.80
20568;DHT22;10442;49.932;11.592;2022-10-16T01:12:47;18.50;80.70
20568;DHT22;10442;49.932;11.592;2022-10-16T01:15:27;18.50;80.70
20568;DHT22;10442;49.932;11.592;2022-10-16T01:18:02;18.50;80.70
20568;DHT22;10442;49.932;11.592;2022-10-16T01:20:35;18.50;80.70
20568;DHT22;10442;49.932;11.592;2022-10-16T01:23:35;18.50;80.70
20568;DHT22;10442;49.932;11.592;2022-10-16T01:29:15;18.50;80.80
20568;DHT22;10442;49.932;11.592;2022-10-16T01:31:52;18.50;80.70
20568;DHT22;10442;49.932;11.592;2022-10-16T01:34:34;18.40;80.70
20568;DHT22;10442;49.932;11.592;2022-10-16T01:37:11;18.40;80.80
20568;DHT22;10442;49.932;11.592;2022-10-16T01:39:41;18.50;80.80
20568;DHT22;10442;49.932;11.592;2022-10-16T01:42:12;18.40;80.80
20568;DHT22;10442;49.932;11.592;2022-10-16T01:44:41;18.40;80.80
20568;DHT22;10442;49.932;11.592;2022-10-16T01:47:10;18.40;80.80
20568;DHT22;10442;49.932;11.592;2022-10-16T01:49:41;18.40;80.80
20568;DHT22;10442;49.932;11.592;2022-10-16T01:52:14;18.40;80.80
20568;DHT22;10442;49.932;11.592;2022-10-16T01:54:43;18.40;81.20
20568;DHT22;10442;49.932;11.592;2022-10-16T01:57:14;18.40;80.90
20568;DHT22;10442;49.932;11.592;2022-10-16T01:59:46;18.40;80.90
20568;DHT22;10442;49.932;11.592;2022-10-16T02:02:15;18.40;80.90
20568;DHT22;10442;49.932;11.592;2022-10-16T02:04:51;18.40;80.90
20568;DHT22;10442;49.932;11.592;2022-10-16T02:07:20;18.40;81.70
20568;DHT22;10442;49.932;11.592;2022-10-16T02:09:47;18.40;81.00
20568;DHT22;10442;49.932;11.592;2022-10-16T02:12:27;18.40;81.00
20568;DHT22;10442;49.932;11.592;2022-10-16T02:14:55;18.40;81.00
20568;DHT22;10442;49.932;11.592;2022-10-16T02:17:24;18.40;80.90
20568;DHT22;10442;49.932;11.592;2022-10-16T02:19:53;18.40;80.90
20568;DHT22;10442;49.932;11.592;2022-10-16T02:22:32;18.40;80.80
20568;DHT22;10442;49.932;11.592;2022-10-16T02:25:10;18.40;80.80
20568;DHT22;10442;49.932;11.592;2022-10-16T02:30:33;18.40;80.90
20568;DHT22;10442;49.932;11.592;2022-10-16T02:33:03;18.50;80.90
20568;DHT22;10442;49.932;11.592;2022-10-16T02:35:32;18.50;80.90
20568;DHT22;10442;49.932;11.592;2022-10-16T02:38:01;18.50;80.80
20568;DHT22;10442;49.932;11.592;2022-10-16T02:40:28;18.50;80.80
20568;DHT22;10442;49.932;11.592;2022-10-16T02:42:57;18.50;80.80
20568;DHT22;10442;49.932;11.592;2022-10-16T02:45:25;18.50;80.80
20568;DHT22;10442;49.932;11.592;2022-10-16T02:47:52;18.50;80.80
20568;DHT22;10442;49.932;11.592;2022-10-16T02:50:20;18.50;80.80
20568;DHT22;10442;49.932;11.592;2022-10-16T02:52:48;18.50;80.80
20568;DHT22;10442;49.932;11.592;2022-10-16T02:55:15;18.50;80.80
20568;DHT22;10442;49.932;11.592;2022-10-16T02:57:43;18.50;80.80
20568;DHT22;10442;49.932;11.592;2022-10-16T03:00:13;18.50;80.80
20568;DHT22;10442;49.932;11.592;2022-10-16T03:02:41;18.50;80.80
20568;DHT22;10442;49.932;11.592;2022-10-16T03:05:09;18.50;80.80
20568;DHT22;10442;49.932;11.592;2022-10-16T03:07:37;18.50;80.80
20568;DHT22;10442;49.932;11.592;2022-10-16T03:10:05;18.50;80.80
20568;DHT22;10442;49.932;11.592;2022-10-16T03:12:33;18.60;80.80
20568;DHT22;10442;49.932;11.592;2022-10-16T03:15:00;18.50;80.70
20568;DHT22;10442;49.932;11.592;2022-10-16T03:17:28;18.50;80.70
20568;DHT22;10442;49.932;11.592;2022-10-16T03:19:55;18.60;80.70
20568;DHT22;10442;49.932;11.592;2022-10-16T03:22:23;18.60;80.70
20568;DHT22;10442;49.932;11.592;2022-10-16T03:24:50;18.60;80.70
20568;DHT22;10442;49.932;11.592;2022-10-16T03:27:18;18.60;80.70
20568;DHT22;10442;49.932;11.592;2022-10-16T03:29:46;18.60;80.70
20568;DHT22;10442;49.932;11.592;2022-10-16T03:32:13;18.60;80.70
20568;DHT22;10442;49.932;11.592;2022-10-16T03:34:41;18.60;80.70
20568;DHT22;10442;49.932;11.592;2022-10-16T03:37:09;18.60;80.60
20568;DHT22;10442;49.932;11.592;2022-10-16T03:39:36;18.60;80.60
20568;DHT22;10442;49.932;11.592;2022-10-16T03:42:04;18.60;80.60
20568;DHT22;10442;49.932;11.592;2022-10-16T03:44:31;18.60;80.60
20568;DHT22;10442;49.932;11.592;2022-10-16T03:46:59;18.60;80.70
20568;DHT22;10442;49.932;11.592;2022-10-16T03:49:26;18.60;80.70
20568;DHT22;10442;49.932;11.592;2022-10-16T03:51:54;18.60;80.70
20568;DHT22;10442;49.932;11.592;2022-10-16T03:54:22;18.60;80.70
20568;DHT22;10442;49.932;11.592;2022-10-16T03:56:49;18.60;80.70
20568;DHT22;10442;49.932;11.592;2022-10-16T03:59:17;18.60;80.70
20568;DHT22;10442;49.932;11.592;2022-10-16T04:01:44;18.60;80.70
20568;DHT22;10442;49.932;11.592;2022-10-16T04:04:11;18.60;80.80
20568;DHT22;10442;49.932;11.592;2022-10-16T04:06:39;18.60;80.70
20568;DHT22;10442;49.932;11.592;2022-10-16T04:09:06;18.60;80.70
20568;DHT22;10442;49.932;11.592;2022-10-16T04:11:34;18.60;80.60
20568;DHT22;10442;49.932;11.592;2022-10-16T04:14:01;18.60;80.60
20568;DHT22;10442;49.932;11.592;2022-10-16T04:16:29;18.60;80.60
20568;DHT22;10442;49.932;11.592;2022-10-16T04:18:56;18.60;80.60
20568;DHT22;10442;49.932;11.592;2022-10-16T04:21:23;18.60;80.60
20568;DHT22;10442;49.932;11.592;2022-10-16T04:23:51;18.60;80.60
20568;DHT22;10442;49.932;11.592;2022-10-16T04:26:18;18.70;80.60
20568;DHT22;10442;49.932;11.592;2022-10-16T04:28:46;18.70;80.50
20568;DHT22;10442;49.932;11.592;2022-10-16T04:31:13;18.70;80.40
20568;DHT22;10442;49.932;11.592;2022-10-16T04:33:43;18.70;80.40
20568;DHT22;10442;49.932;11.592;2022-10-16T04:36:10;18.70;80.40
20568;DHT22;10442;49.932;11.592;2022-10-16T04:38:38;18.70;80.40
20568;DHT22;10442;49.932;11.592;2022-10-16T04:41:07;18.70;80.40
20568;DHT22;10442;49.932;11.592;2022-10-16T04:43:35;18.70;80.30
20568;DHT22;10442;49.932;11.592;2022-10-16T04:46:02;18.70;80.30
20568;DHT22;10442;49.932;11.592;2022-10-16T04:48:32;18.70;80.30
20568;DHT22;10442;49.932;11.592;2022-10-16T04:50:59;18.70;80.30
20568;DHT22;10442;49.932;11.592;2022-10-16T04:53:27;18.70;80.40
20568;DHT22;10442;49.932;11.592;2022-10-16T04:55:54;18.70;80.50
20568;DHT22;10442;49.932;11.592;2022-10-16T04:58:23;18.70;80.40
20568;DHT22;10442;49.932;11.592;2022-10-16T05:00:50;18.70;80.30
20568;DHT22;10442;49.932;11.592;2022-10-16T05:03:18;18.70;80.40
20568;DHT22;10442;49.932;11.592;2022-10-16T05:05:46;18.70;80.40
20568;DHT22;10442;49.932;11.592;2022-10-16T05:08:15;18.70;80.40
20568;DHT22;10442;49.932;11.592;2022-10-16T05:10:44;18.70;80.40
20568;DHT22;10442;49.932;11.592;2022-10-16T05:13:12;18.70;80.40
20568;DHT22;10442;49.932;11.592;2022-10-16T05:15:40;18.70;80.50
20568;DHT22;10442;49.932;11.592;2022-10-16T05:18:09;18.70;80.50
20568;DHT22;10442;49.932;11.592;2022-10-16T05:20:36;18.70;80.50
20568;DHT22;10442;49.932;11.592;2022-10-16T05:23:04;18.70;80.50
20568;DHT22;10442;49.932;11.592;2022-10-16T05:25:31;18.70;80.40
20568;DHT22;10442;49.932;11.592;2022-10-16T05:27:58;18.70;80.50
20568;DHT22;10442;49.932;11.592;2022-10-16T05:30:26;18.70;80.50
20568;DHT22;10442;49.932;11.592;2022-10-16T05:32:53;18.70;80.50
20568;DHT22;10442;49.932;11.592;2022-10-16T05:35:21;18.70;80.40
20568;DHT22;10442;49.932;11.592;2022-10-16T05:37:48;18.70;80.40
20568;DHT22;10442;49.932;11.592;2022-10-16T05:40:16;18.70;80.30
20568;DHT22;10442;49.932;11.592;2022-10-16T05:42:44;18.70;80.40
20568;DHT22;10442;49.932;11.592;2022-10-16T05:45:11;18.70;80.40
20568;DHT22;10442;49.932;11.592;2022-10-16T05:47:39;18.70;80.40
20568;DHT22;10442;49.932;11.592;2022-10-16T05:50:07;18.70;80.40
20568;DHT22;10442;49.932;11.592;2022-10-16T05:52:34;18.70;80.40
20568;DHT22;10442;49.932;11.592;2022-10-16T05:55:02;18.70;80.40
20568;DHT22;10442;49.932;11.592;2022-10-16T05:57:30;18.70;80.40
20568;DHT22;10442;49.932;11.592;2022-10-16T05:59:57;18.70;80.40
20568;DHT22;10442;49.932;11.592;2022-10-16T06:02:25;18.70;80.40
20568;DHT22;10442;49.932;11.592;2022-10-16T06:04:52;18.60;80.30
20568;DHT22;10442;49.932;11.592;2022-10-16T06:07:23;18.60;80.40
20568;DHT22;10442;49.932;11.592;2022-10-16T06:09:52;18.60;80.40
20568;DHT22;10442;49.932;11.592;2022-10-16T06:12:20;18.60;80.50
20568;DHT22;10442;49.932;11.592;2022-10-16T06:14:48;18.60;80.60
20568;DHT22;10442;49.932;11.592;2022-10-16T06:17:15;18.60;80.60
20568;DHT22;10442;49.932;11.592;2022-10-16T06:19:43;18.60;80.60
20568;DHT22;10442;49.932;11.592;2022-10-16T06:22:10;18.60;80.70
20568;DHT22;10442;49.932;11.592;2022-10-16T06:24:37;18.60;80.80
20568;DHT22;10442;49.932;11.592;2022-10-16T06:27:05;18.60;80.80
20568;DHT22;10442;49.932;11.592;2022-10-16T06:29:32;18.60;80.90
20568;DHT22;10442;49.932;11.592;2022-10-16T06:32:00;18.60;80.90
20568;DHT22;10442;49.932;11.592;2022-10-16T06:34:27;18.60;81.00
20568;DHT22;10442;49.932;11.592;2022-10-16T06:36:54;18.60;80.90
20568;DHT22;10442;49.932;11.592;2022-10-16T06:39:22;18.60;80.90
20568;DHT22;10442;49.932;11.592;2022-10-16T06:41:50;18.60;80.90
20568;DHT22;10442;49.932;11.592;2022-10-16T06:44:17;18.70;81.00
20568;DHT22;10442;49.932;11.592;2022-10-16T06:46:45;18.70;81.00
20568;DHT22;10442;49.932;11.592;2022-10-16T06:49:12;18.70;80.90
20568;DHT22;10442;49.932;11.592;2022-10-16T06:51:40;18.80;81.00
20568;DHT22;10442;49.932;11.592;2022-10-16T06:54:10;18.80;80.90
20568;DHT22;10442;49.932;11.592;2022-10-16T06:56:37;18.90;81.00
20568;DHT22;10442;49.932;11.592;2022-10-16T06:59:05;18.90;80.80
20568;DHT22;10442;49.932;11.592;2022-10-16T07:01:32;19.00;80.80
20568;DHT22;10442;49.932;11.592;2022-10-16T07:04:01;19.00;80.60
20568;DHT22;10442;49.932;11.592;2022-10-16T07:06:32;19.00;80.40
20568;DHT22;10442;49.932;11.592;2022-10-16T07:09:03;19.10;80.20
20568;DHT22;10442;49.932;11.592;2022-10-16T07:11:31;19.10;80.00
20568;DHT22;10442;49.932;11.592;2022-10-16T07:13:59;19.10;79.90
20568;DHT22;10442;49.932;11.592;2022-10-16T07:16:28;19.10;79.90
20568;DHT22;10442;49.932;11.592;2022-10-16T07:19:01;19.10;79.80
20568;DHT22;10442;49.932;11.592;2022-10-16T07:21:32;19.10;79.80
20568;DHT22;10442;49.932;11.592;2022-10-16T07:24:05;19.10;79.90
20568;DHT22;10442;49.932;11.592;2022-10-16T07:26:35;19.20;80.10
20568;DHT22;10442;49.932;11.592;2022-10-16T07:29:03;19.20;80.10
20568;DHT22;10442;49.932;11.592;2022-10-16T07:31:31;19.20;80.00
20568;DHT22;10442;49.932;11.592;2022-10-16T07:34:00;19.20;80.20
20568;DHT22;10442;49.932;11.592;2022-10-16T07:36:27;19.20;80.30
20568;DHT22;10442;49.932;11.592;2022-10-16T07:38:55;19.30;80.40
20568;DHT22;10442;49.932;11.592;2022-10-16T07:41:27;19.30;80.40
20568;DHT22;10442;49.932;11.592;2022-10-16T07:43:55;19.40;80.60
20568;DHT22;10442;49.932;11.592;2022-10-16T07:46:24;19.50;80.60
20568;DHT22;10442;49.932;11.592;2022-10-16T07:48:52;19.60;80.90
20568;DHT22;10442;49.932;11.592;2022-10-16T07:51:24;19.70;80.70
20568;DHT22;10442;49.932;11.592;2022-10-16T07:53:53;19.90;80.40
20568;DHT22;10442;49.932;11.592;2022-10-16T07:56:21;20.00;79.90
20568;DHT22;10442;49.932;11.592;2022-10-16T07:58:49;20.20;79.20
20568;DHT22;10442;49.932;11.592;2022-10-16T08:01:18;20.30;79.00
20568;DHT22;10442;49.932;11.592;2022-10-16T08:03:48;20.40;78.80
20568;DHT22;10442;49.932;11.592;2022-10-16T08:06:17;20.50;79.00
20568;DHT22;10442;49.932;11.592;2022-10-16T08:08:50;20.60;78.00
20568;DHT22;10442;49.932;11.592;2022-10-16T08:11:17;20.70;77.60
20568;DHT22;10442;49.932;11.592;2022-10-16T08:13:45;20.70;77.40
20568;DHT22;10442;49.932;11.592;2022-10-16T08:16:12;20.70;77.10
20568;DHT22;10442;49.932;11.592;2022-10-16T08:18:40;20.70;77.20
20568;DHT22;10442;49.932;11.592;2022-10-16T08:21:13;20.70;77.20
20568;DHT22;10442;49.932;11.592;2022-10-16T08:23:48;20.70;76.90
20568;DHT22;10442;49.932;11.592;2022-10-16T08:26:23;20.70;77.10
20568;DHT22;10442;49.932;11.592;2022-10-16T08:28:50;20.80;77.00
20568;DHT22;10442;49.932;11.592;2022-10-16T08:31:19;20.90;77.00
20568;DHT22;10442;49.932;11.592;2022-10-16T08:33:46;21.00;77.10
20568;DHT22;10442;49.932;11.592;2022-10-16T08:36:16;21.10;76.90
20568;DHT22;10442;49.932;11.592;2022-10-16T08:38:43;21.20;76.70
20568;DHT22;10442;49.932;11.592;2022-10-16T08:49:27;21.70;74.90
20568;DHT22;10442;49.932;11.592;2022-10-16T08:51:57;21.80;74.80
20568;DHT22;10442;49.932;11.592;2022-10-16T08:54:46;21.90;74.60
20568;DHT22;10442;49.932;11.592;2022-10-16T08:57:22;22.00;75.00
20568;DHT22;10442;49.932;11.592;2022-10-16T08:59:51;22.00;73.40
20568;DHT22;10442;49.932;11.592;2022-10-16T09:02:26;22.10;72.70
20568;DHT22;10442;49.932;11.592;2022-10-16T09:04:58;22.10;72.30
20568;DHT22;10442;49.932;11.592;2022-10-16T09:07:42;22.20;72.10
20568;DHT22;10442;49.932;11.592;2022-10-16T09:19:04;22.00;71.40
20568;DHT22;10442;49.932;11.592;2022-10-16T09:21:41;22.00;71.10
20568;DHT22;10442;49.932;11.592;2022-10-16T09:26:40;21.90;71.70
20568;DHT22;10442;49.932;11.592;2022-10-16T09:29:18;21.90;71.80
20568;DHT22;10442;49.932;11.592;2022-10-16T09:31:53;21.90;71.50
20568;DHT22;10442;49.932;11.592;2022-10-16T09:34:33;21.90;72.00
20568;DHT22;10442;49.932;11.592;2022-10-16T09:37:05;21.90;71.80
20568;DHT22;10442;49.932;11.592;2022-10-16T09:39:46;21.90;72.00
20568;DHT22;10442;49.932;11.592;2022-10-16T09:42:21;21.90;72.30
20568;DHT22;10442;49.932;11.592;2022-10-16T09:44:51;22.00;71.80
20568;DHT22;10442;49.932;11.592;2022-10-16T09:47:23;22.00;72.00
20568;DHT22;10442;49.932;11.592;2022-10-16T09:50:24;22.10;72.40
20568;DHT22;10442;49.932;11.592;2022-10-16T09:53:06;22.10;71.60
20568;DHT22;10442;49.932;11.592;2022-10-16T09:55:51;22.20;71.60
20568;DHT22;10442;49.932;11.592;2022-10-16T09:58:22;22.30;71.00
20568;DHT22;10442;49.932;11.592;2022-10-16T10:00:54;22.30;71.00
20568;DHT22;10442;49.932;11.592;2022-10-16T10:03:37;22.30;70.70
20568;DHT22;10442;49.932;11.592;2022-10-16T10:06:15;22.30;70.70
20568;DHT22;10442;49.932;11.592;2022-10-16T10:09:03;22.40;70.60
20568;DHT22;10442;49.932;11.592;2022-10-16T10:11:45;22.40;70.50
20568;DHT22;10442;49.932;11.592;2022-10-16T10:16:49;22.50;70.50
20568;DHT22;10442;49.932;11.592;2022-10-16T10:19:20;22.50;70.40
20568;DHT22;10442;49.932;11.592;2022-10-16T10:21:47;22.60;70.60
20568;DHT22;10442;49.932;11.592;2022-10-16T10:24:17;22.60;70.90
20568;DHT22;10442;49.932;11.592;2022-10-16T10:26:54;22.70;70.90
20568;DHT22;10442;49.932;11.592;2022-10-16T10:35:04;22.90;70.20
20568;DHT22;10442;49.932;11.592;2022-10-16T10:40:54;22.90;69.90
20568;DHT22;10442;49.932;11.592;2022-10-16T10:55:16;23.10;70.00
20568;DHT22;10442;49.932;11.592;2022-10-16T11:08:19;23.20;70.00
20568;DHT22;10442;49.932;11.592;2022-10-16T11:11:06;23.20;70.00
20568;DHT22;10442;49.932;11.592;2022-10-16T11:13:54;23.30;70.50
20568;DHT22;10442;49.932;11.592;2022-10-16T11:16:58;23.30;70.50
20568;DHT22;10442;49.932;11.592;2022-10-16T11:19:42;23.40;70.10
20568;DHT22;10442;49.932;11.592;2022-10-16T11:22:24;23.40;70.00
20568;DHT22;10442;49.932;11.592;2022-10-16T11:24:59;23.40;70.00
20568;DHT22;10442;49.932;11.592;2022-10-16T11:27:42;23.40;69.50
20568;DHT22;10442;49.932;11.592;2022-10-16T11:30:20;23.40;69.50
20568;DHT22;10442;49.932;11.592;2022-10-16T11:35:48;23.40;70.00
20568;DHT22;10442;49.932;11.592;2022-10-16T11:38:41;23.40;70.00
20568;DHT22;10442;49.932;11.592;2022-10-16T11:47:09;23.30;70.40
20568;DHT22;10442;49.932;11.592;2022-10-16T11:50:09;23.30;69.90
20568;DHT22;10442;49.932;11.592;2022-10-16T11:55:36;23.30;68.30
20568;DHT22;10442;49.932;11.592;2022-10-16T11:58:39;23.40;68.50
20568;DHT22;10442;49.932;11.592;2022-10-16T12:03:54;23.40;69.00
20568;DHT22;10442;49.932;11.592;2022-10-16T12:06:44;23.40;68.40
20568;DHT22;10442;49.932;11.592;2022-10-16T12:09:27;23.50;68.70
20568;DHT22;10442;49.932;11.592;2022-10-16T12:11:55;23.50;68.70
20568;DHT22;10442;49.932;11.592;2022-10-16T12:17:04;23.60;68.10
20568;DHT22;10442;49.932;11.592;2022-10-16T12:20:21;23.70;68.00
20568;DHT22;10442;49.932;11.592;2022-10-16T12:22:49;23.70;67.40
20568;DHT22;10442;49.932;11.592;2022-10-16T12:28:00;23.90;67.20
20568;DHT22;10442;49.932;11.592;2022-10-16T12:30:30;23.90;66.80
20568;DHT22;10442;49.932;11.592;2022-10-16T12:33:15;24.00;66.70
20568;DHT22;10442;49.932;11.592;2022-10-16T12:35:46;24.10;67.10
20568;DHT22;10442;49.932;11.592;2022-10-16T12:38:25;24.10;66.30
20568;DHT22;10442;49.932;11.592;2022-10-16T12:41:08;24.20;66.20
20568;DHT22;10442;49.932;11.592;2022-10-16T12:43:41;24.20;66.30
20568;DHT22;10442;49.932;11.592;2022-10-16T12:48:43;24.10;66.70
20568;DHT22;10442;49.932;11.592;2022-10-16T12:54:04;23.90;68.10
20568;DHT22;10442;49.932;11.592;2022-10-16T13:05:17;23.70;71.20
20568;DHT22;10442;49.932;11.592;2022-10-16T13:08:04;23.70;71.20
20568;DHT22;10442;49.932;11.592;2022-10-16T13:14:24;23.80;71.30
20568;DHT22;10442;49.932;11.592;2022-10-16T13:17:11;23.80;71.00
20568;DHT22;10442;49.932;11.592;2022-10-16T13:28:00;23.80;69.60
20568;DHT22;10442;49.932;11.592;2022-10-16T13:30:44;23.80;69.70
20568;DHT22;10442;49.932;11.592;2022-10-16T13:35:53;23.80;69.40
20568;DHT22;10442;49.932;11.592;2022-10-16T13:38:28;23.70;69.20
20568;DHT22;10442;49.932;11.592;2022-10-16T13:41:04;23.70;69.60
20568;DHT22;10442;49.932;11.592;2022-10-16T13:43:35;23.60;69.70
20568;DHT22;10442;49.932;11.592;2022-10-16T13:46:15;23.60;69.00
20568;DHT22;10442;49.932;11.592;2022-10-16T13:48:43;23.50;69.30
20568;DHT22;10442;49.932;11.592;2022-10-16T13:51:16;23.50;69.90
20568;DHT22;10442;49.932;11.592;2022-10-16T13:53:45;23.50;70.00
20568;DHT22;10442;49.932;11.592;2022-10-16T13:56:19;23.50;70.50
20568;DHT22;10442;49.932;11.592;2022-10-16T13:59:01;23.40;70.20
20568;DHT22;10442;49.932;11.592;2022-10-16T14:01:35;23.40;71.10
20568;DHT22;10442;49.932;11.592;2022-10-16T14:04:09;23.40;70.40
20568;DHT22;10442;49.932;11.592;2022-10-16T14:06:41;23.30;70.00
20568;DHT22;10442;49.932;11.592;2022-10-16T14:09:23;23.30;69.60
20568;DHT22;10442;49.932;11.592;2022-10-16T14:12:01;23.30;70.10
20568;DHT22;10442;49.932;11.592;2022-10-16T14:14:35;23.30;70.00
20568;DHT22;10442;49.932;11.592;2022-10-16T14:17:22;23.30;70.00
20568;DHT22;10442;49.932;11.592;2022-10-16T14:19:54;23.30;69.90
20568;DHT22;10442;49.932;11.592;2022-10-16T14:25:26;23.30;70.30
20568;DHT22;10442;49.932;11.592;2022-10-16T14:28:04;23.20;70.00
20568;DHT22;10442;49.932;11.592;2022-10-16T14:30:34;23.20;69.20
20568;DHT22;10442;49.932;11.592;2022-10-16T14:33:20;23.20;69.50
20568;DHT22;10442;49.932;11.592;2022-10-16T14:38:43;23.20;70.20
20568;DHT22;10442;49.932;11.592;2022-10-16T14:41:15;23.20;70.00
20568;DHT22;10442;49.932;11.592;2022-10-16T14:43:43;23.10;70.10
20568;DHT22;10442;49.932;11.592;2022-10-16T14:46:19;23.10;70.20
20568;DHT22;10442;49.932;11.592;2022-10-16T14:48:58;23.10;70.40
20568;DHT22;10442;49.932;11.592;2022-10-16T14:51:27;23.10;70.50
20568;DHT22;10442;49.932;11.592;2022-10-16T14:53:55;23.00;70.40
20568;DHT22;10442;49.932;11.592;2022-10-16T14:56:30;23.00;69.90
20568;DHT22;10442;49.932;11.592;2022-10-16T14:59:00;23.00;69.80
20568;DHT22;10442;49.932;11.592;2022-10-16T15:01:28;22.90;69.70
20568;DHT22;10442;49.932;11.592;2022-10-16T15:03:55;22.90;69.60
20568;DHT22;10442;49.932;11.592;2022-10-16T15:06:22;22.90;69.50
20568;DHT22;10442;49.932;11.592;2022-10-16T15:08:50;22.90;69.90
20568;DHT22;10442;49.932;11.592;2022-10-16T15:11:18;22.90;70.10
20568;DHT22;10442;49.932;11.592;2022-10-16T15:13:46;22.80;71.10
20568;DHT22;10442;49.932;11.592;2022-10-16T15:16:15;22.80;70.40
20568;DHT22;10442;49.932;11.592;2022-10-16T15:18:43;22.70;70.60
20568;DHT22;10442;49.932;11.592;2022-10-16T15:21:24;22.70;70.70
20568;DHT22;10442;49.932;11.592;2022-10-16T15:23:52;22.60;70.80
20568;DHT22;10442;49.932;11.592;2022-10-16T15:26:20;22.50;70.70
20568;DHT22;10442;49.932;11.592;2022-10-16T15:28:48;22.50;71.10
20568;DHT22;10442;49.932;11.592;2022-10-16T15:31:15;22.40;71.20
20568;DHT22;10442;49.932;11.592;2022-10-16T15:33:43;22.30;71.30
20568;DHT22;10442;49.932;11.592;2022-10-16T15:36:10;22.30;71.60
20568;DHT22;10442;49.932;11.592;2022-10-16T15:38:38;22.20;71.90
20568;DHT22;10442;49.932;11.592;2022-10-16T15:41:06;22.20;72.00
20568;DHT22;10442;49.932;11.592;2022-10-16T15:43:33;22.10;72.20
20568;DHT22;10442;49.932;11.592;2022-10-16T15:46:04;22.10;72.50
20568;DHT22;10442;49.932;11.592;2022-10-16T15:48:33;22.00;72.60
20568;DHT22;10442;49.932;11.592;2022-10-16T15:51:04;21.90;72.70
20568;DHT22;10442;49.932;11.592;2022-10-16T15:53:33;21.90;73.20
20568;DHT22;10442;49.932;11.592;2022-10-16T15:56:06;21.80;73.10
20568;DHT22;10442;49.932;11.592;2022-10-16T15:58:34;21.80;73.40
20568;DHT22;10442;49.932;11.592;2022-10-16T16:01:02;21.70;73.30
20568;DHT22;10442;49.932;11.592;2022-10-16T16:03:31;21.70;73.40
20568;DHT22;10442;49.932;11.592;2022-10-16T16:06:04;21.60;73.50
20568;DHT22;10442;49.932;11.592;2022-10-16T16:08:33;21.60;74.00
20568;DHT22;10442;49.932;11.592;2022-10-16T16:11:09;21.50;74.00
20568;DHT22;10442;49.932;11.592;2022-10-16T16:13:37;21.50;74.20
20568;DHT22;10442;49.932;11.592;2022-10-16T16:16:10;21.50;74.10
20568;DHT22;10442;49.932;11.592;2022-10-16T16:18:39;21.50;74.50
20568;DHT22;10442;49.932;11.592;2022-10-16T16:21:08;21.40;74.60
20568;DHT22;10442;49.932;11.592;2022-10-16T16:23:36;21.40;75.00
20568;DHT22;10442;49.932;11.592;2022-10-16T16:26:10;21.40;75.00
20568;DHT22;10442;49.932;11.592;2022-10-16T16:28:39;21.40;75.10
20568;DHT22;10442;49.932;11.592;2022-10-16T16:31:08;21.30;75.20
20568;DHT22;10442;49.932;11.592;2022-10-16T16:33:35;21.30;75.30
20568;DHT22;10442;49.932;11.592;2022-10-16T16:36:04;21.30;75.40
20568;DHT22;10442;49.932;11.592;2022-10-16T16:38:39;21.30;75.50
20568;DHT22;10442;49.932;11.592;2022-10-16T16:41:18;21.20;75.50
20568;DHT22;10442;49.932;11.592;2022-10-16T16:43:46;21.10;75.80
20568;DHT22;10442;49.932;11.592;2022-10-16T16:46:15;21.10;75.60
20568;DHT22;10442;49.932;11.592;2022-10-16T16:48:43;21.10;75.50
20568;DHT22;10442;49.932;11.592;2022-10-16T16:51:13;21.00;75.50
20568;DHT22;10442;49.932;11.592;2022-10-16T16:53:48;21.00;75.60
20568;DHT22;10442;49.932;11.592;2022-10-16T16:56:17;20.90;75.70
20568;DHT22;10442;49.932;11.592;2022-10-16T16:58:45;20.90;75.90
20568;DHT22;10442;49.932;11.592;2022-10-16T17:01:13;20.90;75.90
20568;DHT22;10442;49.932;11.592;2022-10-16T17:03:48;20.80;75.80
20568;DHT22;10442;49.932;11.592;2022-10-16T17:06:23;20.80;76.70
20568;DHT22;10442;49.932;11.592;2022-10-16T17:08:51;20.80;76.20
20568;DHT22;10442;49.932;11.592;2022-10-16T17:11:26;20.70;76.40
20568;DHT22;10442;49.932;11.592;2022-10-16T17:13:55;20.70;76.80
20568;DHT22;10442;49.932;11.592;2022-10-16T17:16:30;20.70;76.70
20568;DHT22;10442;49.932;11.592;2022-10-16T17:19:02;20.60;76.90
20568;DHT22;10442;49.932;11.592;2022-10-16T17:21:30;20.60;76.90
20568;DHT22;10442;49.932;11.592;2022-10-16T17:23:59;20.50;76.80
20568;DHT22;10442;49.932;11.592;2022-10-16T17:26:29;20.50;76.90
20568;DHT22;10442;49.932;11.592;2022-10-16T17:28:59;20.50;77.00
20568;DHT22;10442;49.932;11.592;2022-10-16T17:31:33;20.50;77.20
20568;DHT22;10442;49.932;11.592;2022-10-16T17:34:03;20.40;77.40
20568;DHT22;10442;49.932;11.592;2022-10-16T17:36:33;20.40;77.50
20568;DHT22;10442;49.932;11.592;2022-10-16T17:39:05;20.40;77.60